createdAt,value
2023-02-20T00:01:55.485Z,19.30
2023-02-20T00:04:26.002Z,18.10
2023-02-20T00:06:56.817Z,13.00
2023-02-20T00:09:25.762Z,13.90
2023-02-20T00:11:56.337Z,12.40
2023-02-20T00:14:30.477Z,11.10
2023-02-20T00:16:59.567Z,19.40
2023-02-20T00:19:28.773Z,23.60
2023-02-20T00:22:00.589Z,17.30
2023-02-20T00:24:32.175Z,9.30
2023-02-20T00:27:00.862Z,8.50
2023-02-20T00:29:34.491Z,7.80
2023-02-20T00:32:03.632Z,7.00
2023-02-20T00:34:36.274Z,7.40
2023-02-20T00:37:06.097Z,7.80
2023-02-20T00:39:35.049Z,8.00
2023-02-20T00:42:03.631Z,8.10
2023-02-20T00:44:33.958Z,8.60
2023-02-20T00:47:03.068Z,7.40
2023-02-20T00:49:34.293Z,8.20
2023-02-20T00:52:15.526Z,6.90
2023-02-20T00:54:43.859Z,7.20
2023-02-20T00:57:14.287Z,7.40
2023-02-20T00:59:42.476Z,7.40
2023-02-20T01:02:22.504Z,11.00
2023-02-20T01:04:52.411Z,18.10
2023-02-20T01:07:21.303Z,14.80
2023-02-20T01:09:50.299Z,11.50
2023-02-20T01:12:22.871Z,7.30
2023-02-20T01:14:51.764Z,6.00
2023-02-20T01:17:22.160Z,6.50
2023-02-20T01:19:50.884Z,5.50
2023-02-20T01:22:22.742Z,6.50
2023-02-20T01:24:51.574Z,6.60
2023-02-20T01:27:20.621Z,5.80
2023-02-20T01:29:49.710Z,4.90
2023-02-20T01:32:18.807Z,4.70
2023-02-20T01:34:47.951Z,4.80
2023-02-20T01:37:18.606Z,4.60
2023-02-20T01:39:48.654Z,4.70
2023-02-20T01:42:20.863Z,4.90
2023-02-20T01:44:49.405Z,4.00
2023-02-20T01:47:23.236Z,5.30
2023-02-20T01:50:00.171Z,5.00
2023-02-20T01:52:30.004Z,5.60
2023-02-20T01:55:22.413Z,5.80
2023-02-20T01:58:00.317Z,6.20
2023-02-20T02:00:29.369Z,6.00
2023-02-20T02:03:06.021Z,5.70
2023-02-20T02:05:35.107Z,5.70
2023-02-20T02:08:05.554Z,5.50
2023-02-20T02:10:51.959Z,5.90
2023-02-20T02:13:21.238Z,5.20
2023-02-20T02:15:54.373Z,5.50
2023-02-20T02:18:32.015Z,5.30
2023-02-20T02:21:11.385Z,6.50
2023-02-20T02:23:49.862Z,5.50
2023-02-20T02:26:42.713Z,4.60
2023-02-20T02:29:23.276Z,4.40
2023-02-20T02:32:17.827Z,4.60
2023-02-20T02:34:54.133Z,5.50
2023-02-20T02:37:31.113Z,4.60
2023-02-20T02:40:15.057Z,5.20
2023-02-20T02:43:00.033Z,4.00
2023-02-20T02:45:49.545Z,5.00
2023-02-20T02:48:25.081Z,4.60
2023-02-20T02:50:58.356Z,5.00
2023-02-20T02:53:27.229Z,4.50
2023-02-20T02:55:57.374Z,4.10
2023-02-20T02:58:26.748Z,3.80
2023-02-20T03:00:58.347Z,4.40
2023-02-20T03:03:31.905Z,5.30
2023-02-20T03:06:17.326Z,4.70
2023-02-20T03:08:58.086Z,4.80
2023-02-20T03:11:28.726Z,4.20
2023-02-20T03:14:20.843Z,3.60
2023-02-20T03:17:16.225Z,4.60
2023-02-20T03:19:47.167Z,4.30
2023-02-20T03:22:46.819Z,4.20
2023-02-20T03:25:21.620Z,4.70
2023-02-20T03:27:58.387Z,3.80
2023-02-20T03:30:54.032Z,4.10
2023-02-20T03:33:56.998Z,4.70
2023-02-20T03:36:57.013Z,4.30
2023-02-20T03:39:48.477Z,4.30
2023-02-20T03:42:36.753Z,4.10
2023-02-20T03:45:11.375Z,4.20
2023-02-20T03:47:44.210Z,5.50
2023-02-20T03:50:13.074Z,4.30
2023-02-20T03:52:43.706Z,4.80
2023-02-20T03:55:14.001Z,4.50
2023-02-20T03:57:45.782Z,4.90
2023-02-20T04:00:16.428Z,5.20
2023-02-20T04:02:49.699Z,6.70
2023-02-20T04:05:22.955Z,7.30
2023-02-20T04:08:03.257Z,7.70
2023-02-20T04:10:37.115Z,7.90
2023-02-20T04:13:08.306Z,9.20
2023-02-20T04:15:37.459Z,9.50
2023-02-20T04:18:11.624Z,7.70
2023-02-20T04:20:41.532Z,8.00
2023-02-20T04:23:36.477Z,8.00
2023-02-20T04:26:19.466Z,9.40
2023-02-20T04:28:49.572Z,7.70
2023-02-20T04:31:19.842Z,7.90
2023-02-20T04:33:49.706Z,5.60
2023-02-20T04:36:22.176Z,5.90
2023-02-20T04:38:52.090Z,5.40
2023-02-20T04:41:24.575Z,5.30
2023-02-20T04:44:13.088Z,4.90
2023-02-20T04:46:42.557Z,4.80
2023-02-20T04:49:13.147Z,5.40
2023-02-20T04:51:42.046Z,4.70
2023-02-20T04:54:11.449Z,4.90
2023-02-20T04:56:40.333Z,5.90
2023-02-20T04:59:09.739Z,4.10
2023-02-20T05:01:39.690Z,4.80
2023-02-20T05:04:12.289Z,5.10
2023-02-20T05:06:46.237Z,4.30
2023-02-20T05:09:15.026Z,4.60
2023-02-20T05:11:43.918Z,4.70
2023-02-20T05:14:14.249Z,4.50
2023-02-20T05:16:45.844Z,5.50
2023-02-20T05:19:15.523Z,5.00
2023-02-20T05:22:03.849Z,6.80
2023-02-20T05:24:32.845Z,5.60
2023-02-20T05:27:02.144Z,4.80
2023-02-20T05:29:31.132Z,5.50
2023-02-20T05:32:00.058Z,5.70
2023-02-20T05:34:28.795Z,5.30
2023-02-20T05:36:57.807Z,5.60
2023-02-20T05:39:26.805Z,6.10
2023-02-20T05:41:55.893Z,5.70
2023-02-20T05:44:24.785Z,5.40
2023-02-20T05:46:57.260Z,6.50
2023-02-20T05:49:26.361Z,5.50
2023-02-20T05:51:58.332Z,4.90
2023-02-20T05:54:29.865Z,5.30
2023-02-20T05:57:01.136Z,5.40
2023-02-20T05:59:31.642Z,3.70
2023-02-20T06:02:00.931Z,5.20
2023-02-20T06:04:30.115Z,4.30
2023-02-20T06:06:59.486Z,4.70
2023-02-20T06:09:28.740Z,3.70
2023-02-20T06:11:57.633Z,3.90
2023-02-20T06:14:28.462Z,3.80
2023-02-20T06:16:58.292Z,4.20
2023-02-20T06:19:27.719Z,3.60
2023-02-20T06:21:59.126Z,4.20
2023-02-20T06:24:28.218Z,4.20
2023-02-20T06:26:57.621Z,3.40
2023-02-20T06:29:26.333Z,3.70
2023-02-20T06:31:57.885Z,3.80
2023-02-20T06:37:03.118Z,3.50
2023-02-20T06:39:32.386Z,4.60
2023-02-20T06:42:08.657Z,3.50
2023-02-20T06:44:39.344Z,3.30
2023-02-20T06:47:09.439Z,3.10
2023-02-20T07:00:43.759Z,2.90
2023-02-20T07:03:12.808Z,3.20
2023-02-20T07:05:41.704Z,3.50
2023-02-20T07:08:10.489Z,3.20
2023-02-20T07:10:40.203Z,3.60
2023-02-20T07:13:36.323Z,3.50
2023-02-20T07:16:31.740Z,3.10
2023-02-20T07:19:06.983Z,2.90
2023-02-20T07:22:06.893Z,3.90
2023-02-20T07:25:02.967Z,3.40
2023-02-20T07:27:32.745Z,3.40
2023-02-20T07:30:02.004Z,2.80
2023-02-20T07:32:31.328Z,2.90
2023-02-20T07:35:05.312Z,2.70
2023-02-20T07:37:41.113Z,3.20
2023-02-20T07:40:11.898Z,2.50
2023-02-20T07:42:41.537Z,2.80
2023-02-20T07:45:24.041Z,3.00
2023-02-20T07:47:55.971Z,2.70
2023-02-20T07:50:24.995Z,2.80
2023-02-20T07:52:54.097Z,3.40
2023-02-20T07:55:23.509Z,3.00
2023-02-20T07:57:58.479Z,4.10
2023-02-20T08:00:28.044Z,3.10
2023-02-20T08:02:59.890Z,3.80
2023-02-20T08:05:40.269Z,3.50
2023-02-20T08:08:17.840Z,3.00
2023-02-20T08:10:47.093Z,2.90
2023-02-20T08:13:16.870Z,3.00
2023-02-20T08:15:46.260Z,3.00
2023-02-20T08:18:23.607Z,2.70
2023-02-20T08:20:57.398Z,2.40
2023-02-20T08:23:28.080Z,2.80
2023-02-20T08:25:57.079Z,2.50
2023-02-20T08:28:26.888Z,2.70
2023-02-20T08:30:56.198Z,2.90
2023-02-20T08:33:25.495Z,2.90
2023-02-20T08:35:55.734Z,3.00
2023-02-20T08:38:35.962Z,4.80
2023-02-20T08:41:07.497Z,3.70
2023-02-20T08:43:38.352Z,2.70
2023-02-20T08:46:07.503Z,2.50
2023-02-20T08:48:38.587Z,2.60
2023-02-20T08:51:07.791Z,2.90
2023-02-20T08:53:38.033Z,3.30
2023-02-20T08:56:07.552Z,3.20
2023-02-20T08:58:36.470Z,3.80
2023-02-20T09:01:06.029Z,5.90
2023-02-20T09:03:38.894Z,4.90
2023-02-20T09:06:09.060Z,3.50
2023-02-20T09:08:38.823Z,3.40
2023-02-20T09:11:10.093Z,5.40
2023-02-20T09:13:44.528Z,4.20
2023-02-20T09:16:15.156Z,4.20
2023-02-20T09:18:44.828Z,4.70
2023-02-20T09:21:14.377Z,3.50
2023-02-20T09:23:43.216Z,4.50
2023-02-20T09:26:12.425Z,4.60
2023-02-20T09:28:42.975Z,4.50
2023-02-20T09:31:11.952Z,3.80
2023-02-20T09:33:50.891Z,4.10
2023-02-20T09:36:20.585Z,3.80
2023-02-20T09:38:49.369Z,3.50
2023-02-20T09:41:42.879Z,4.70
2023-02-20T09:44:16.535Z,3.30
2023-02-20T09:46:46.062Z,3.30
2023-02-20T09:49:25.594Z,3.10
2023-02-20T09:51:58.523Z,3.40
2023-02-20T09:54:29.095Z,3.50
2023-02-20T09:57:00.225Z,3.10
2023-02-20T09:59:32.684Z,3.90
2023-02-20T10:02:18.280Z,4.40
2023-02-20T10:05:00.845Z,2.80
2023-02-20T10:07:37.108Z,2.70
2023-02-20T10:10:21.935Z,2.70
2023-02-20T10:13:01.373Z,3.20
2023-02-20T10:15:40.961Z,3.40
2023-02-20T10:18:28.949Z,3.20
2023-02-20T10:21:01.805Z,2.10
2023-02-20T10:23:53.971Z,2.10
2023-02-20T10:29:15.336Z,2.60
2023-02-20T10:31:48.966Z,2.30
2023-02-20T10:34:22.869Z,2.20
2023-02-20T10:37:16.689Z,3.70
2023-02-20T10:39:58.788Z,2.90
2023-02-20T10:42:33.937Z,1.90
2023-02-20T10:45:10.705Z,5.40
2023-02-20T10:47:53.323Z,6.10
2023-02-20T10:50:25.657Z,2.00
2023-02-20T10:53:12.811Z,2.00
2023-02-20T10:56:02.598Z,2.20
2023-02-20T10:58:39.239Z,1.90
2023-02-20T11:01:14.010Z,2.40
2023-02-20T11:03:59.045Z,2.90
2023-02-20T11:06:37.252Z,2.30
2023-02-20T11:09:10.854Z,1.90
2023-02-20T11:11:45.317Z,2.30
2023-02-20T11:14:16.942Z,2.10
2023-02-20T11:16:53.493Z,1.60
2023-02-20T11:19:26.936Z,2.00
2023-02-20T11:21:55.809Z,2.40
2023-02-20T11:24:33.287Z,1.50
2023-02-20T11:27:08.371Z,1.70
2023-02-20T11:29:40.485Z,2.00
2023-02-20T11:32:23.546Z,1.90
2023-02-20T11:35:18.728Z,2.40
2023-02-20T11:37:55.230Z,2.10
2023-02-20T11:40:29.491Z,2.50
2023-02-20T11:43:32.308Z,2.50
2023-02-20T11:46:24.687Z,1.80
2023-02-20T11:48:57.344Z,2.70
2023-02-20T11:51:33.137Z,2.70
2023-02-20T11:54:14.231Z,1.60
2023-02-20T11:57:03.191Z,2.50
2023-02-20T11:59:37.606Z,2.50
2023-02-20T12:02:15.820Z,1.90
2023-02-20T12:04:46.105Z,1.90
2023-02-20T12:07:26.289Z,2.30
2023-02-20T12:09:56.535Z,2.40
2023-02-20T12:12:33.082Z,2.60
2023-02-20T12:15:02.911Z,1.70
2023-02-20T12:17:48.890Z,2.00
2023-02-20T12:20:19.403Z,2.50
2023-02-20T12:23:14.438Z,2.00
2023-02-20T12:26:02.253Z,2.40
2023-02-20T12:28:43.348Z,2.50
2023-02-20T12:31:30.719Z,2.90
2023-02-20T12:34:02.510Z,4.70
2023-02-20T12:36:40.514Z,2.20
2023-02-20T12:39:37.322Z,1.80
2023-02-20T12:42:15.881Z,3.10
2023-02-20T12:44:54.578Z,2.60
2023-02-20T12:47:31.983Z,2.90
2023-02-20T12:50:16.850Z,3.50
2023-02-20T12:52:51.270Z,2.30
2023-02-20T12:55:36.804Z,2.20
2023-02-20T12:58:28.171Z,3.70
2023-02-20T13:01:02.411Z,3.30
2023-02-20T13:03:44.072Z,4.70
2023-02-20T13:06:17.576Z,3.40
2023-02-20T13:09:19.704Z,2.40
2023-02-20T13:15:03.649Z,3.90
2023-02-20T13:17:41.201Z,5.70
2023-02-20T13:20:23.418Z,6.00
2023-02-20T13:23:19.023Z,3.60
2023-02-20T13:25:48.967Z,3.40
2023-02-20T13:28:21.319Z,7.70
2023-02-20T13:31:22.924Z,16.20
2023-02-20T13:34:11.819Z,15.80
2023-02-20T13:36:42.809Z,7.10
2023-02-20T13:39:21.594Z,10.70
2023-02-20T13:41:56.514Z,6.10
2023-02-20T13:44:36.897Z,22.00
2023-02-20T13:47:22.198Z,62.60
2023-02-20T13:49:59.286Z,16.20
2023-02-20T13:52:44.091Z,5.80
2023-02-20T13:55:24.855Z,4.70
2023-02-20T13:58:03.887Z,4.90
2023-02-20T14:00:45.253Z,5.40
2023-02-20T14:06:13.921Z,4.30
2023-02-20T14:08:48.810Z,3.50
2023-02-20T14:11:35.077Z,2.70
2023-02-20T14:14:23.963Z,3.80
2023-02-20T14:16:52.768Z,2.90
2023-02-20T14:19:24.431Z,3.50
2023-02-20T14:21:53.545Z,4.00
2023-02-20T14:24:27.469Z,4.50
2023-02-20T14:26:57.266Z,4.40
2023-02-20T14:29:31.945Z,4.10
2023-02-20T14:32:02.570Z,3.40
2023-02-20T14:35:07.774Z,3.70
2023-02-20T14:37:45.312Z,3.00
2023-02-20T14:40:39.315Z,4.30
2023-02-20T14:43:20.473Z,4.20
2023-02-20T14:46:00.829Z,5.30
2023-02-20T14:48:32.989Z,4.60
2023-02-20T14:53:34.254Z,4.90
2023-02-20T14:56:14.544Z,3.60
2023-02-20T14:58:45.357Z,4.70
2023-02-20T15:01:18.607Z,5.70
2023-02-20T15:04:17.664Z,4.80
2023-02-20T15:06:47.885Z,6.20
2023-02-20T15:09:22.772Z,6.30
2023-02-20T15:11:58.410Z,5.50
2023-02-20T15:14:29.377Z,5.40
2023-02-20T15:17:09.601Z,7.10
2023-02-20T15:19:44.010Z,6.00
2023-02-20T15:22:22.876Z,6.20
2023-02-20T15:24:51.673Z,7.90
2023-02-20T15:27:27.635Z,7.30
2023-02-20T15:30:18.578Z,5.20
2023-02-20T15:35:21.947Z,4.50
2023-02-20T15:37:55.233Z,4.50
2023-02-20T15:40:26.825Z,6.10
2023-02-20T15:42:58.084Z,4.30
2023-02-20T15:47:58.321Z,3.80
2023-02-20T15:50:27.687Z,4.70
2023-02-20T15:52:58.941Z,4.00
2023-02-20T15:55:29.814Z,4.90
2023-02-20T15:58:00.727Z,4.90
2023-02-20T16:00:33.696Z,4.10
2023-02-20T16:03:02.932Z,4.50
2023-02-20T16:05:32.688Z,4.80
2023-02-20T16:08:01.713Z,5.10
2023-02-20T16:10:30.749Z,6.00
2023-02-20T16:12:59.770Z,10.20
2023-02-20T16:15:30.304Z,10.00
2023-02-20T16:18:00.131Z,9.60
2023-02-20T16:20:30.370Z,20.80
2023-02-20T16:22:59.643Z,25.90
2023-02-20T16:25:28.623Z,12.00
2023-02-20T16:27:58.440Z,10.70
2023-02-20T16:30:33.685Z,8.20
2023-02-20T16:33:21.614Z,5.70
2023-02-20T16:35:53.034Z,3.70
2023-02-20T16:38:24.826Z,2.40
2023-02-20T16:40:55.169Z,3.10
2023-02-20T16:43:24.133Z,2.30
2023-02-20T16:45:53.128Z,2.40
2023-02-20T16:48:27.447Z,2.90
2023-02-20T16:50:57.507Z,2.80
2023-02-20T16:53:32.666Z,3.80
2023-02-20T16:56:02.080Z,3.40
2023-02-20T16:58:32.608Z,4.10
2023-02-20T17:01:01.570Z,3.60
2023-02-20T17:03:32.466Z,3.50
2023-02-20T17:06:01.558Z,3.60
2023-02-20T17:08:30.572Z,3.00
2023-02-20T17:10:59.964Z,3.30
2023-02-20T17:13:29.358Z,3.00
2023-02-20T17:15:58.533Z,3.10
2023-02-20T17:18:27.439Z,4.70
2023-02-20T17:20:57.054Z,5.10
2023-02-20T17:23:26.347Z,6.50
2023-02-20T17:25:55.989Z,7.90
2023-02-20T17:28:25.264Z,7.80
2023-02-20T17:30:54.964Z,4.70
2023-02-20T17:33:26.090Z,3.50
2023-02-20T17:35:56.953Z,3.40
2023-02-20T17:38:25.834Z,3.00
2023-02-20T17:40:55.237Z,4.10
2023-02-20T17:43:24.348Z,3.80
2023-02-20T17:45:53.528Z,3.70
2023-02-20T17:48:22.845Z,2.70
2023-02-20T17:50:51.849Z,3.20
2023-02-20T17:53:21.634Z,4.20
2023-02-20T17:55:50.627Z,4.20
2023-02-20T17:58:20.856Z,6.00
2023-02-20T18:00:49.980Z,6.40
2023-02-20T18:03:19.033Z,6.60
2023-02-20T18:05:50.176Z,6.50
2023-02-20T18:08:19.679Z,6.60
2023-02-20T18:10:48.725Z,6.00
2023-02-20T18:13:17.925Z,6.30
2023-02-20T18:15:47.072Z,6.90
2023-02-20T18:18:20.257Z,8.50
2023-02-20T18:20:49.261Z,7.10
2023-02-20T18:23:18.716Z,5.90
2023-02-20T18:25:50.675Z,4.80
2023-02-20T18:28:20.044Z,5.30
2023-02-20T18:30:51.270Z,5.00
2023-02-20T18:33:20.062Z,4.60
2023-02-20T18:36:07.078Z,4.20
2023-02-20T18:38:37.708Z,3.70
2023-02-20T18:41:09.466Z,3.80
2023-02-20T18:43:41.150Z,3.60
2023-02-20T18:46:11.284Z,3.50
2023-02-20T18:48:41.202Z,3.20
2023-02-20T18:51:13.896Z,2.80
2023-02-20T18:53:45.498Z,3.40
2023-02-20T18:58:44.488Z,3.50
2023-02-20T19:01:21.089Z,3.80
2023-02-20T19:03:53.339Z,3.90
2023-02-20T19:06:37.373Z,4.40
2023-02-20T19:09:19.704Z,4.90
2023-02-20T19:11:50.379Z,3.60
2023-02-20T19:14:19.812Z,4.10
2023-02-20T19:16:51.539Z,3.60
2023-02-20T19:19:24.212Z,4.00
2023-02-20T19:21:57.048Z,3.60
2023-02-20T19:24:26.348Z,3.20
2023-02-20T19:26:55.767Z,3.60
2023-02-20T19:29:26.177Z,3.50
2023-02-20T19:31:55.395Z,4.20
2023-02-20T19:34:24.665Z,2.70
2023-02-20T19:36:55.404Z,4.40
2023-02-20T19:39:24.797Z,4.70
2023-02-20T19:41:55.107Z,3.60
2023-02-20T19:44:24.537Z,4.30
2023-02-20T19:46:53.620Z,4.20
2023-02-20T19:49:23.228Z,4.50
2023-02-20T19:51:54.373Z,4.20
2023-02-20T19:54:28.349Z,3.90
2023-02-20T19:56:59.788Z,4.30
2023-02-20T19:59:29.334Z,4.50
2023-02-20T20:01:59.991Z,3.70
2023-02-20T20:04:32.487Z,3.70
2023-02-20T20:07:04.509Z,4.00
2023-02-20T20:09:37.702Z,4.20
2023-02-20T20:12:28.287Z,3.80
2023-02-20T20:14:57.797Z,4.50
2023-02-20T20:17:27.713Z,4.30
2023-02-20T20:20:00.738Z,4.30
2023-02-20T20:22:31.124Z,4.80
2023-02-20T20:25:00.522Z,4.60
2023-02-20T20:27:30.036Z,4.60
2023-02-20T20:30:00.152Z,5.30
2023-02-20T20:32:29.756Z,5.10
2023-02-20T20:34:59.155Z,5.20
2023-02-20T20:37:27.856Z,4.90
2023-02-20T20:39:59.527Z,5.40
2023-02-20T20:42:28.705Z,4.40
2023-02-20T20:45:02.700Z,5.60
2023-02-20T20:47:32.132Z,5.10
2023-02-20T20:50:01.124Z,6.40
2023-02-20T20:52:31.442Z,6.30
2023-02-20T20:55:03.289Z,6.20
2023-02-20T20:57:36.674Z,7.10
2023-02-20T21:00:10.995Z,7.10
2023-02-20T21:02:40.139Z,8.40
2023-02-20T21:05:11.356Z,6.60
2023-02-20T21:07:41.153Z,7.50
2023-02-20T21:10:10.900Z,6.00
2023-02-20T21:12:40.264Z,7.40
2023-02-20T21:15:09.967Z,8.40
2023-02-20T21:17:39.413Z,9.50
2023-02-20T21:20:16.403Z,9.20
2023-02-20T21:22:45.546Z,8.50
2023-02-20T21:25:14.336Z,6.70
2023-02-20T21:27:44.865Z,8.40
2023-02-20T21:30:14.818Z,9.20
2023-02-20T21:32:45.028Z,7.80
2023-02-20T21:35:15.224Z,7.40
2023-02-20T21:37:44.315Z,8.60
2023-02-20T21:40:13.418Z,7.00
2023-02-20T21:43:01.772Z,7.70
2023-02-20T21:45:31.058Z,7.60
2023-02-20T21:48:00.340Z,6.10
2023-02-20T21:50:29.757Z,7.60
2023-02-20T21:52:59.260Z,8.10
2023-02-20T21:55:28.466Z,6.80
2023-02-20T21:57:57.757Z,6.90
2023-02-20T22:00:27.078Z,6.50
2023-02-20T22:02:55.990Z,8.20
2023-02-20T22:05:24.874Z,7.40
2023-02-20T22:08:12.823Z,7.00
2023-02-20T22:11:00.405Z,8.40
2023-02-20T22:13:48.265Z,6.30
2023-02-20T22:16:38.877Z,7.30
2023-02-20T22:19:26.263Z,7.00
2023-02-20T22:22:13.927Z,6.50
2023-02-20T22:25:01.729Z,7.50
2023-02-20T22:27:51.010Z,6.80
2023-02-20T22:30:38.680Z,5.60
2023-02-20T22:33:29.844Z,5.80
2023-02-20T22:36:17.683Z,6.40
2023-02-20T22:39:07.664Z,7.80
2023-02-20T22:41:56.011Z,6.00
2023-02-20T22:44:44.260Z,5.80
2023-02-20T22:47:32.393Z,6.00
2023-02-20T22:50:20.134Z,6.40
2023-02-20T22:53:10.932Z,5.40
2023-02-20T22:55:58.542Z,5.30
2023-02-20T22:58:46.876Z,5.60
2023-02-20T23:01:34.496Z,5.70
2023-02-20T23:04:22.294Z,5.90
2023-02-20T23:07:10.513Z,5.40
2023-02-20T23:09:57.836Z,4.90
2023-02-20T23:12:45.672Z,5.90
2023-02-20T23:15:33.811Z,5.20
2023-02-20T23:18:23.183Z,6.30
2023-02-20T23:21:10.696Z,7.70
2023-02-20T23:23:59.261Z,8.80
2023-02-20T23:26:47.097Z,8.20
2023-02-20T23:29:34.622Z,9.40
2023-02-20T23:32:23.119Z,9.80
2023-02-20T23:35:10.693Z,9.30
2023-02-20T23:37:58.117Z,9.30
2023-02-20T23:40:45.590Z,9.20
2023-02-20T23:43:33.170Z,8.40
2023-02-20T23:46:20.695Z,7.70
2023-02-20T23:49:08.331Z,6.70
2023-02-20T23:51:57.656Z,5.80
2023-02-20T23:54:49.146Z,4.70
2023-02-20T23:57:36.734Z,5.30
